Time;durP1;ratioP1;P1;durP2;ratioP2;P2;SDS_P1;SDS_P2;PMS_P1;PMS_P2;Temp;Humidity;BMP_temperature;BMP_pressure;BME280_temperature;BME280_humidity;BME280_pressure;Samples;Min_cycle;Max_cycle;Signal;HPM_P1;HPM_P2
2021/05/28 00:00:06;;;;;;;5.87;4.20;;;10.70;99.90;;;;;;5056055;28;20612;-68
2021/05/28 00:02:31;;;;;;;8.55;4.72;;;10.70;99.90;;;;;;5038170;28;20457;-64
2021/05/28 00:04:57;;;;;;;6.53;4.00;;;10.70;99.90;;;;;;5055519;28;20242;-64
2021/05/28 00:07:22;;;;;;;5.10;4.60;;;10.70;99.90;;;;;;5055907;28;20189;-64
2021/05/28 00:09:48;;;;;;;8.33;5.43;;;10.80;99.90;;;;;;5055810;28;20180;-64
2021/05/28 00:12:14;;;;;;;9.63;5.73;;;10.80;99.90;;;;;;5055691;28;20208;-64
2021/05/28 00:14:39;;;;;;;7.37;5.60;;;10.80;99.90;;;;;;5053651;28;20268;-64
2021/05/28 00:17:05;;;;;;;6.67;5.10;;;10.80;99.90;;;;;;5052549;28;20192;-64
2021/05/28 00:19:31;;;;;;;8.02;5.32;;;10.80;99.90;;;;;;5055213;28;20531;-64
2021/05/28 00:21:56;;;;;;;6.60;5.30;;;10.70;99.90;;;;;;5055161;28;20181;-64
2021/05/28 00:24:22;;;;;;;10.20;6.07;;;10.70;99.90;;;;;;5055062;28;20230;-64
2021/05/28 00:26:47;;;;;;;6.40;5.27;;;10.70;99.90;;;;;;5055379;28;20184;-64
2021/05/28 00:29:13;;;;;;;13.13;5.67;;;10.70;99.90;;;;;;5055212;28;20177;-65
2021/05/28 00:31:39;;;;;;;11.70;6.33;;;10.70;99.90;;;;;;5055269;28;20196;-64
2021/05/28 00:34:05;;;;;;;9.73;5.60;;;10.70;99.90;;;;;;5054899;28;20415;-62
2021/05/28 00:36:30;;;;;;;9.80;5.90;;;10.70;99.90;;;;;;5055205;28;20256;-62
2021/05/28 00:38:56;;;;;;;9.40;5.80;;;10.70;99.90;;;;;;5055322;28;20209;-62
2021/05/28 00:41:21;;;;;;;10.37;5.63;;;10.60;99.90;;;;;;5055184;28;20188;-62
2021/05/28 00:43:50;;;;;;;9.23;6.30;;;10.60;99.90;;;;;;5054752;28;20180;-62
2021/05/28 00:46:15;;;;;;;12.35;6.00;;;10.50;99.90;;;;;;5055210;28;20544;-62
2021/05/28 00:48:41;;;;;;;10.70;6.33;;;10.60;99.90;;;;;;5054976;28;20189;-62
2021/05/28 00:51:07;;;;;;;9.20;5.30;;;10.50;99.90;;;;;;5054911;28;20215;-62
2021/05/28 00:53:32;;;;;;;8.47;5.80;;;10.40;99.90;;;;;;5054777;28;20226;-62
2021/05/28 00:56:00;;;;;;;9.87;5.90;;;10.40;99.90;;;;;;5054738;28;20915;-62
2021/05/28 00:58:26;;;;;;;12.98;5.88;;;10.40;99.90;;;;;;5037478;28;20610;-64
2021/05/28 01:00:54;;;;;;;7.40;6.22;;;10.40;99.90;;;;;;5037357;28;20613;-68
2021/05/28 01:03:20;;;;;;;12.48;6.78;;;10.20;99.90;;;;;;5055273;28;20181;-65
2021/05/28 01:05:46;;;;;;;8.67;5.30;;;10.20;99.90;;;;;;5054644;28;20293;-65
2021/05/28 01:08:11;;;;;;;9.97;6.07;;;10.30;99.90;;;;;;5054626;28;20181;-65
2021/05/28 01:10:37;;;;;;;9.10;5.80;;;10.20;99.90;;;;;;5054532;28;20433;-65
2021/05/28 01:13:05;;;;;;;8.30;5.37;;;10.10;99.90;;;;;;5054552;28;20176;-65
2021/05/28 01:15:31;;;;;;;8.95;6.90;;;10.10;99.90;;;;;;5054291;28;20185;-65
2021/05/28 01:17:57;;;;;;;9.70;5.95;;;10.10;99.90;;;;;;5054303;28;20205;-65
2021/05/28 01:20:23;;;;;;;8.50;6.40;;;10.00;99.90;;;;;;5054456;28;20200;-65
2021/05/28 01:22:48;;;;;;;9.77;6.30;;;9.90;99.90;;;;;;5054417;28;20207;-65
2021/05/28 01:25:14;;;;;;;10.37;5.67;;;9.90;99.90;;;;;;5054153;28;20238;-65
2021/05/28 01:27:40;;;;;;;8.27;5.37;;;9.80;99.90;;;;;;5054239;28;20653;-65
2021/05/28 01:30:06;;;;;;;8.88;5.47;;;9.80;99.90;;;;;;5054458;28;20176;-65
2021/05/28 01:32:32;;;;;;;9.77;6.05;;;9.80;99.90;;;;;;5053942;28;20221;-64
2021/05/28 01:34:58;;;;;;;8.80;5.40;;;9.70;99.90;;;;;;5053819;28;20610;-64
2021/05/28 01:37:24;;;;;;;10.83;6.20;;;9.70;99.90;;;;;;5054145;28;20430;-64
2021/05/28 01:39:50;;;;;;;9.70;5.60;;;9.70;99.90;;;;;;5053450;28;20187;-65
2021/05/28 01:42:17;;;;;;;7.13;5.60;;;9.60;99.90;;;;;;5054252;28;20614;-64
2021/05/28 01:44:44;;;;;;;7.88;5.90;;;9.60;99.90;;;;;;5053774;28;20314;-64
2021/05/28 01:47:12;;;;;;;7.50;5.10;;;9.60;99.90;;;;;;5053880;28;20177;-63
2021/05/28 01:49:40;;;;;;;6.65;5.03;;;9.60;99.90;;;;;;5053933;28;20513;-63
2021/05/28 01:52:09;;;;;;;7.43;5.38;;;9.50;99.90;;;;;;5053732;28;20269;-60
2021/05/28 01:54:39;;;;;;;7.72;5.68;;;9.60;99.90;;;;;;5053553;28;20165;-63
2021/05/28 01:57:06;;;;;;;8.07;5.60;;;9.50;99.90;;;;;;5053950;28;20173;-64
2021/05/28 01:59:32;;;;;;;10.27;5.72;;;9.60;99.90;;;;;;5053760;28;20191;-64
2021/05/28 02:01:58;;;;;;;10.80;5.40;;;9.60;99.90;;;;;;5053658;28;20515;-64
2021/05/28 02:04:27;;;;;;;7.67;5.20;;;9.50;99.90;;;;;;5035764;28;20189;-64
2021/05/28 02:06:54;;;;;;;9.35;5.75;;;9.40;99.90;;;;;;5053580;28;20176;-64
2021/05/28 02:09:20;;;;;;;9.15;5.90;;;9.50;99.90;;;;;;5053361;28;20187;-64
2021/05/28 02:11:47;;;;;;;9.73;5.43;;;9.40;99.90;;;;;;5053953;28;20284;-64
2021/05/28 02:14:13;;;;;;;8.82;5.88;;;9.40;99.90;;;;;;5052905;28;20230;-64
2021/05/28 02:16:39;;;;;;;10.40;6.90;;;9.30;99.90;;;;;;5053674;28;20187;-64
2021/05/28 02:19:08;;;;;;;8.70;5.70;;;9.30;99.90;;;;;;5053893;28;20184;-64
2021/05/28 02:21:34;;;;;;;14.43;6.85;;;9.30;99.90;;;;;;5053356;28;20173;-64
2021/05/28 02:23:59;;;;;;;7.00;5.47;;;9.30;99.90;;;;;;5052964;28;20536;-62
2021/05/28 02:26:25;;;;;;;10.57;6.20;;;9.20;99.90;;;;;;5053541;28;20449;-63
2021/05/28 02:28:51;;;;;;;10.73;6.50;;;9.10;99.90;;;;;;5053237;28;20219;-62
2021/05/28 02:31:17;;;;;;;7.50;5.57;;;9.10;99.90;;;;;;5053045;28;20223;-62
2021/05/28 02:33:42;;;;;;;10.52;6.53;;;9.10;99.90;;;;;;5052708;28;20183;-62
2021/05/28 02:36:09;;;;;;;9.37;6.00;;;9.20;99.90;;;;;;5052987;28;20170;-63
2021/05/28 02:38:34;;;;;;;10.55;6.07;;;9.20;99.90;;;;;;5052998;28;20172;-63
2021/05/28 02:41:00;;;;;;;7.83;6.10;;;9.10;99.90;;;;;;5053131;28;20203;-63
2021/05/28 02:43:26;;;;;;;13.50;5.70;;;9.10;99.90;;;;;;5052943;28;20522;-63
2021/05/28 02:45:52;;;;;;;13.23;5.60;;;9.10;99.90;;;;;;5052726;28;20560;-67
2021/05/28 02:48:19;;;;;;;5.95;4.43;;;9.10;99.90;;;;;;5035456;28;20184;-64
2021/05/28 02:50:47;;;;;;;6.45;4.75;;;9.00;99.90;;;;;;5052328;28;20173;-65
2021/05/28 02:53:14;;;;;;;10.60;5.00;;;9.00;99.90;;;;;;5052293;28;20204;-62
2021/05/28 02:55:39;;;;;;;7.03;4.70;;;9.00;99.90;;;;;;5052681;28;20177;-62
2021/05/28 02:58:05;;;;;;;6.80;4.30;;;9.00;99.90;;;;;;5052951;28;20444;-62
2021/05/28 03:00:31;;;;;;;6.53;4.95;;;8.90;99.90;;;;;;5052826;28;20191;-62
2021/05/28 03:02:57;;;;;;;6.60;4.97;;;8.90;99.90;;;;;;5052871;28;20187;-62
2021/05/28 03:05:24;;;;;;;10.70;4.17;;;8.90;99.90;;;;;;5052706;28;20476;-62
2021/05/28 03:07:52;;;;;;;8.25;4.80;;;8.90;99.90;;;;;;5051171;28;20473;-62
2021/05/28 03:10:18;;;;;;;9.70;4.72;;;8.90;99.90;;;;;;5052814;28;20188;-62
2021/05/28 03:12:44;;;;;;;7.93;4.97;;;9.00;99.90;;;;;;5035107;28;20231;-62
2021/05/28 03:15:13;;;;;;;8.07;5.27;;;9.00;99.90;;;;;;5051860;28;20224;-62
2021/05/28 03:17:42;;;;;;;5.72;4.93;;;9.00;99.90;;;;;;5052550;28;20191;-62
2021/05/28 03:20:17;;;;;;;12.10;6.45;;;9.10;99.90;;;;;;5052627;28;20195;-62
2021/05/28 03:22:43;;;;;;;11.02;5.20;;;9.30;99.90;;;;;;5052662;28;20238;-62
2021/05/28 03:25:11;;;;;;;7.35;4.43;;;9.30;99.90;;;;;;5051743;28;20632;-62
2021/05/28 03:27:38;;;;;;;6.18;4.32;;;9.30;99.90;;;;;;5052465;28;20187;-62
2021/05/28 03:30:09;;;;;;;7.60;4.30;;;9.40;99.90;;;;;;5052096;28;20185;-62
2021/05/28 03:32:36;;;;;;;5.30;4.28;;;9.40;99.90;;;;;;5035038;28;20208;-62
2021/05/28 03:35:03;;;;;;;7.95;4.25;;;9.50;99.90;;;;;;5051793;28;20696;-62
2021/05/28 03:37:28;;;;;;;7.53;5.00;;;9.60;99.90;;;;;;5052451;28;20264;-62
2021/05/28 03:39:54;;;;;;;6.20;4.07;;;9.70;99.90;;;;;;5052623;28;20173;-61
2021/05/28 03:42:20;;;;;;;10.37;4.63;;;9.80;99.90;;;;;;5052590;28;20644;-62
2021/05/28 03:44:46;;;;;;;6.87;3.70;;;9.90;99.90;;;;;;5052117;28;20644;-62
2021/05/28 03:47:15;;;;;;;6.00;4.18;;;9.90;99.90;;;;;;5052633;28;20505;-62
2021/05/28 03:49:42;;;;;;;7.25;4.90;;;10.10;99.90;;;;;;5052605;28;20215;-62
2021/05/28 03:52:08;;;;;;;6.70;4.55;;;10.10;99.90;;;;;;5052407;28;20204;-62
2021/05/28 03:54:33;;;;;;;5.53;3.30;;;10.20;99.90;;;;;;5034644;28;20181;-62
2021/05/28 03:56:59;;;;;;;8.83;3.73;;;10.30;99.90;;;;;;5052660;28;20169;-62
2021/05/28 03:59:25;;;;;;;6.60;4.30;;;10.30;99.90;;;;;;5052665;28;20173;-62
2021/05/28 04:01:50;;;;;;;5.83;3.83;;;10.30;99.90;;;;;;5052489;28;20263;-62
2021/05/28 04:04:19;;;;;;;5.50;3.73;;;10.30;99.90;;;;;;5055099;28;20514;-62
2021/05/28 04:06:45;;;;;;;8.40;4.45;;;10.40;99.90;;;;;;5056514;28;20231;-62
2021/05/28 04:09:10;;;;;;;4.50;3.70;;;10.40;99.90;;;;;;5038975;28;20234;-62
2021/05/28 04:11:36;;;;;;;6.70;3.50;;;10.30;99.90;;;;;;5056397;28;20669;-62
2021/05/28 04:14:01;;;;;;;4.90;3.00;;;10.40;99.90;;;;;;5055443;28;20521;-62
2021/05/28 04:16:27;;;;;;;6.40;4.53;;;10.50;99.90;;;;;;5056171;28;20510;-62
2021/05/28 04:18:52;;;;;;;6.00;4.20;;;10.70;99.90;;;;;;5055701;28;20195;-62
2021/05/28 04:21:18;;;;;;;9.83;4.90;;;11.30;99.90;;;;;;5055673;28;20508;-62
2021/05/28 04:23:44;;;;;;;5.17;3.40;;;11.80;99.90;;;;;;5054770;28;20192;-62
2021/05/28 04:26:09;;;;;;;6.50;3.93;;;12.50;46.30;;;;;;5055374;28;20193;-63
2021/05/28 04:28:35;;;;;;;5.80;3.67;;;13.60;1.00;;;;;;5055448;28;20629;-63
2021/05/28 04:31:00;;;;;;;5.67;3.60;;;13.80;99.90;;;;;;5055413;28;20287;-63
2021/05/28 04:33:26;;;;;;;5.90;3.87;;;13.80;1.00;;;;;;5055268;28;20546;-63
2021/05/28 04:35:52;;;;;;;4.40;3.43;;;14.10;99.90;;;;;;5037609;28;20191;-63
2021/05/28 04:38:18;;;;;;;4.83;3.37;;;14.30;99.90;;;;;;5055325;28;20264;-63
2021/05/28 04:40:44;;;;;;;5.53;3.97;;;14.70;99.90;;;;;;5055082;28;20502;-63
2021/05/28 04:43:10;;;;;;;8.70;3.17;;;14.80;99.90;;;;;;5055061;28;20169;-63
2021/05/28 04:45:36;;;;;;;5.00;4.03;;;14.90;99.90;;;;;;5055200;28;20177;-63
2021/05/28 04:48:02;;;;;;;6.85;3.92;;;15.10;1.00;;;;;;5055010;28;20839;-63
2021/05/28 04:50:31;;;;;;;9.77;4.83;;;15.80;84.90;;;;;;5055031;28;20205;-63
2021/05/28 04:52:58;;;;;;;6.88;4.65;;;15.60;1.00;;;;;;5054916;28;20471;-63
2021/05/28 04:55:27;;;;;;;6.18;4.47;;;15.60;1.00;;;;;;5054688;28;20496;-63
2021/05/28 04:57:53;;;;;;;6.82;4.65;;;16.40;1.00;;;;;;5054750;28;20169;-63
2021/05/28 05:00:20;;;;;;;6.43;4.53;;;16.80;84.00;;;;;;5055301;28;20173;-63
2021/05/28 05:02:46;;;;;;;6.13;4.50;;;17.20;1.00;;;;;;5054786;28;20807;-63
2021/05/28 05:05:12;;;;;;;9.00;5.80;;;17.50;1.00;;;;;;5054137;28;20438;-63
2021/05/28 05:07:38;;;;;;;9.23;5.47;;;16.30;10.40;;;;;;5054662;28;20484;-63
2021/05/28 05:10:05;;;;;;;9.63;6.50;;;15.70;99.90;;;;;;5054837;28;20431;-63
2021/05/28 05:12:30;;;;;;;9.93;5.65;;;13.90;1.00;;;;;;5054289;28;20656;-63
2021/05/28 05:14:56;;;;;;;8.40;6.27;;;12.50;98.20;;;;;;5052719;28;20181;-63
2021/05/28 05:17:21;;;;;;;7.00;5.43;;;12.20;99.90;;;;;;5054479;28;20234;-63
2021/05/28 05:19:47;;;;;;;11.20;7.30;;;12.10;99.90;;;;;;5054548;28;20219;-63
2021/05/28 05:22:13;;;;;;;7.53;6.73;;;11.90;99.90;;;;;;5054370;28;20204;-63
2021/05/28 05:24:39;;;;;;;10.10;7.07;;;12.00;99.90;;;;;;5053856;28;20911;-63
2021/05/28 05:27:05;;;;;;;13.20;7.27;;;11.60;99.90;;;;;;5054306;28;20630;-63
2021/05/28 05:29:30;;;;;;;10.68;7.32;;;11.60;99.90;;;;;;5054195;28;20268;-63
2021/05/28 05:31:56;;;;;;;9.90;7.53;;;11.60;99.90;;;;;;5054260;28;20737;-63
2021/05/28 05:34:22;;;;;;;9.47;6.90;;;11.50;99.90;;;;;;5053322;28;20178;-63
2021/05/28 05:36:47;;;;;;;9.17;7.13;;;11.70;99.90;;;;;;5053946;28;20177;-63
2021/05/28 05:39:13;;;;;;;9.70;6.93;;;11.80;99.90;;;;;;5053913;28;20213;-63
2021/05/28 05:41:39;;;;;;;10.70;7.43;;;11.70;99.90;;;;;;5054419;28;20431;-63
2021/05/28 05:44:10;;;;;;;10.97;7.50;;;11.80;99.90;;;;;;5053352;28;20630;-63
2021/05/28 05:46:36;;;;;;;8.55;6.78;;;11.90;99.90;;;;;;5053871;28;20238;-63
2021/05/28 05:49:02;;;;;;;8.80;7.17;;;11.90;99.90;;;;;;5053846;28;20203;-63
2021/05/28 05:51:27;;;;;;;11.35;7.50;;;12.00;99.90;;;;;;5053660;28;20291;-63
2021/05/28 05:53:53;;;;;;;10.37;8.70;;;11.70;99.90;;;;;;5053210;28;20573;-63
2021/05/28 05:56:19;;;;;;;9.40;6.67;;;11.60;99.90;;;;;;5053804;28;20173;-63
2021/05/28 05:58:45;;;;;;;8.30;7.07;;;11.40;99.90;;;;;;5053567;28;20172;-63
2021/05/28 06:01:10;;;;;;;9.93;6.93;;;11.10;99.90;;;;;;5053615;28;20567;-62
2021/05/28 06:03:36;;;;;;;8.93;7.10;;;11.20;99.90;;;;;;5047797;28;20428;-62
2021/05/28 06:06:02;;;;;;;11.27;6.60;;;11.10;99.90;;;;;;5031844;28;20307;-61
2021/05/28 06:08:27;;;;;;;11.47;6.23;;;11.40;99.90;;;;;;5051942;28;20431;-61
2021/05/28 06:10:53;;;;;;;10.03;7.03;;;11.20;99.90;;;;;;5052056;28;20618;-61
2021/05/28 06:13:19;;;;;;;9.10;6.70;;;11.10;99.90;;;;;;5052212;28;20185;-61
2021/05/28 06:15:44;;;;;;;10.07;7.60;;;11.10;99.90;;;;;;5052712;28;20181;-61
2021/05/28 06:18:10;;;;;;;9.53;7.20;;;11.30;99.90;;;;;;5053107;28;20565;-61
2021/05/28 06:20:36;;;;;;;11.87;7.77;;;11.10;99.90;;;;;;5053002;28;20666;-61
2021/05/28 06:23:01;;;;;;;8.00;6.60;;;11.10;99.90;;;;;;5053094;28;20242;-67
2021/05/28 06:25:28;;;;;;;9.47;6.50;;;11.10;99.90;;;;;;5052365;28;20423;-66
2021/05/28 06:27:53;;;;;;;7.85;6.15;;;11.10;99.90;;;;;;5052751;28;20188;-66
2021/05/28 06:30:19;;;;;;;8.20;6.60;;;11.10;99.90;;;;;;5035464;28;20181;-61
2021/05/28 06:32:45;;;;;;;10.33;6.73;;;11.10;99.90;;;;;;5035280;28;20220;-60
2021/05/28 06:35:11;;;;;;;14.03;9.10;;;11.40;99.90;;;;;;5052312;28;20532;-61
2021/05/28 06:37:36;;;;;;;7.37;6.07;;;11.70;99.90;;;;;;5052272;28;20515;-62
2021/05/28 06:40:04;;;;;;;8.73;6.10;;;11.90;82.90;;;;;;5051038;28;20181;-64
2021/05/28 06:42:29;;;;;;;8.38;5.13;;;11.80;92.80;;;;;;5050142;28;20195;-63
2021/05/28 06:44:55;;;;;;;6.90;5.30;;;11.90;17.60;;;;;;5052398;28;20181;-64
2021/05/28 06:47:20;;;;;;;8.10;6.07;;;12.30;1.00;;;;;;5050624;28;20512;-64
2021/05/28 06:49:46;;;;;;;9.00;6.03;;;12.20;1.00;;;;;;5050315;28;20180;-60
2021/05/28 06:52:13;;;;;;;11.57;6.03;;;12.10;1.00;;;;;;5032221;28;20563;-59
2021/05/28 06:54:42;;;;;;;11.10;6.80;;;12.00;1.00;;;;;;5049057;28;20210;-59
2021/05/28 06:57:07;;;;;;;8.30;6.18;;;12.20;1.00;;;;;;5028238;28;20731;-59
2021/05/28 06:59:33;;;;;;;8.83;6.77;;;12.20;1.00;;;;;;5048125;28;20562;-59
2021/05/28 07:01:59;;;;;;;9.03;5.50;;;12.20;1.00;;;;;;5051311;28;20674;-60
2021/05/28 07:04:25;;;;;;;11.40;7.13;;;12.10;36.80;;;;;;5049829;28;20188;-62
2021/05/28 07:06:51;;;;;;;9.15;6.05;;;11.90;45.70;;;;;;5052089;28;20196;-65
2021/05/28 07:09:16;;;;;;;12.40;7.40;;;11.50;99.90;;;;;;5051561;28;20181;-64
2021/05/28 07:11:42;;;;;;;7.90;6.70;;;11.50;99.90;;;;;;5050692;28;20531;-62
2021/05/28 07:14:14;;;;;;;9.80;7.00;;;11.40;99.90;;;;;;5051871;28;20626;-63
2021/05/28 07:17:17;;;;;;;11.30;7.55;;;11.40;99.90;;;;;;5053561;28;20183;-68
2021/05/28 07:19:43;;;;;;;11.93;6.25;;;11.50;99.90;;;;;;5049977;28;20551;-60
2021/05/28 07:22:29;;;;;;;11.30;6.70;;;11.50;99.90;;;;;;5055811;28;20177;-65
2021/05/28 07:24:54;;;;;;;9.85;5.60;;;11.30;99.90;;;;;;5036217;28;20197;-61
2021/05/28 07:27:20;;;;;;;8.50;6.43;;;11.30;99.90;;;;;;5052793;28;20191;-61
2021/05/28 07:32:52;;;;;;;13.98;7.10;;;11.30;99.90;;;;;;4974986;28;20278;-61
2021/05/28 07:35:18;;;;;;;12.00;7.68;;;11.40;99.90;;;;;;5048398;28;20211;-63
2021/05/28 07:37:43;;;;;;;12.20;5.63;;;11.60;99.90;;;;;;5052716;28;20621;-61
2021/05/28 07:40:11;;;;;;;9.73;5.93;;;11.50;98.70;;;;;;5055580;28;20180;-61
2021/05/28 07:42:37;;;;;;;13.30;6.72;;;11.50;83.40;;;;;;5039315;28;20272;-63
2021/05/28 07:45:04;;;;;;;7.97;5.80;;;11.70;99.90;;;;;;5055705;28;20192;-60
2021/05/28 07:47:29;;;;;;;10.52;5.70;;;11.70;94.40;;;;;;5038926;28;20611;-61
2021/05/28 07:49:55;;;;;;;10.20;6.80;;;11.80;75.20;;;;;;5056465;28;20181;-63
2021/05/28 07:52:20;;;;;;;9.50;5.83;;;11.60;81.90;;;;;;5056620;28;20216;-62
2021/05/28 07:54:46;;;;;;;10.17;6.60;;;11.50;99.90;;;;;;5057292;28;20184;-63
2021/05/28 07:57:11;;;;;;;10.50;6.47;;;11.70;99.90;;;;;;5056077;28;20250;-62
2021/05/28 07:59:37;;;;;;;10.40;5.97;;;11.90;44.30;;;;;;5055885;28;20252;-62
2021/05/28 08:02:06;;;;;;;12.57;7.07;;;12.20;46.10;;;;;;5056482;28;20232;-64
2021/05/28 08:08:27;;;;;;;8.05;6.00;;;12.90;1.00;;;;;;5047530;28;20196;-67
2021/05/28 08:11:34;;;;;;;9.60;6.22;;;13.80;1.00;;;;;;5057837;28;20579;-68
2021/05/28 08:13:59;;;;;;;8.52;6.30;;;13.70;1.00;;;;;;5035170;28;20177;-65
2021/05/28 08:16:25;;;;;;;9.57;6.40;;;13.80;1.00;;;;;;5035750;28;20204;-65
2021/05/28 08:18:52;;;;;;;12.67;6.23;;;13.70;1.00;;;;;;5035403;28;20204;-64
2021/05/28 08:21:17;;;;;;;9.73;5.57;;;14.00;99.90;;;;;;5035459;28;20173;-64
2021/05/28 08:23:43;;;;;;;7.37;5.80;;;14.10;99.90;;;;;;5043617;28;20191;-64
2021/05/28 08:26:08;;;;;;;11.00;6.23;;;14.40;99.90;;;;;;5055223;28;20231;-63
2021/05/28 08:28:35;;;;;;;14.53;6.80;;;14.70;99.90;;;;;;5055246;28;20188;-64
2021/05/28 08:31:03;;;;;;;9.85;5.47;;;14.20;99.90;;;;;;5055208;28;20193;-63
2021/05/28 08:33:29;;;;;;;8.20;6.30;;;13.90;99.90;;;;;;5055263;28;20169;-65
2021/05/28 08:35:57;;;;;;;8.43;5.70;;;13.50;1.00;;;;;;5054812;28;20230;-61
2021/05/28 08:38:23;;;;;;;13.63;7.15;;;13.70;1.00;;;;;;5055020;28;20172;-61
2021/05/28 08:40:49;;;;;;;14.27;7.03;;;13.70;1.00;;;;;;5055308;28;20172;-62
2021/05/28 08:43:14;;;;;;;11.60;6.40;;;13.60;1.00;;;;;;5054815;28;20192;-65
2021/05/28 08:45:43;;;;;;;10.63;7.23;;;13.80;1.00;;;;;;5054973;28;20198;-63
2021/05/28 08:48:11;;;;;;;10.70;5.97;;;14.30;1.00;;;;;;5055304;28;20892;-63
2021/05/28 08:50:38;;;;;;;10.55;6.28;;;14.60;99.90;;;;;;5055068;28;20195;-64
2021/05/28 08:53:06;;;;;;;7.88;5.63;;;14.40;99.90;;;;;;5054544;28;20680;-68
2021/05/28 08:55:33;;;;;;;10.27;5.70;;;14.30;99.90;;;;;;5054302;28;20569;-66
2021/05/28 08:57:58;;;;;;;9.98;7.05;;;14.30;99.90;;;;;;5054447;28;20177;-66
2021/05/28 09:00:26;;;;;;;11.10;7.10;;;14.90;99.90;;;;;;5054860;28;20180;-64
2021/05/28 09:02:52;;;;;;;5.00;3.92;;;14.90;1.00;;;;;;5054380;28;20518;-65
2021/05/28 09:05:23;;;;;;;6.57;4.60;;;14.10;99.90;;;;;;5054434;28;20283;-66
2021/05/28 09:08:00;;;;;;;7.13;5.20;;;14.40;99.90;;;;;;5054699;28;20463;-66
2021/05/28 09:10:36;;;;;;;11.77;6.22;;;14.70;99.90;;;;;;5054618;28;20518;-62
2021/05/28 09:13:24;;;;;;;11.55;6.88;;;14.10;99.90;;;;;;5054343;28;20641;-65
2021/05/28 09:16:10;;;;;;;9.40;5.75;;;14.00;99.90;;;;;;5056596;28;20633;-64
2021/05/28 09:18:43;;;;;;;7.82;5.45;;;14.50;99.90;;;;;;5054067;28;20344;-64
2021/05/28 09:21:08;;;;;;;8.13;6.22;;;14.80;99.90;;;;;;5053934;28;20196;-64
2021/05/28 09:23:35;;;;;;;10.23;5.50;;;14.90;61.50;;;;;;5036341;28;20221;-63
2021/05/28 09:26:06;;;;;;;7.40;5.63;;;15.10;1.00;;;;;;5053970;28;20233;-62
2021/05/28 09:28:45;;;;;;;10.43;6.25;;;14.50;29.70;;;;;;5036887;28;20177;-62
2021/05/28 09:31:32;;;;;;;7.38;5.45;;;14.40;99.90;;;;;;5053699;28;20191;-62
2021/05/28 09:33:58;;;;;;;9.48;5.47;;;14.30;99.90;;;;;;5054451;28;20520;-63
2021/05/28 09:36:26;;;;;;;8.83;5.40;;;14.40;99.90;;;;;;5053919;28;20183;-62
2021/05/28 09:38:57;;;;;;;7.80;5.07;;;13.80;1.00;;;;;;5054083;28;20247;-63
2021/05/28 09:41:43;;;;;;;11.13;6.65;;;13.80;1.00;;;;;;5054227;28;20571;-60
2021/05/28 09:44:20;;;;;;;12.80;7.85;;;13.60;1.00;;;;;;5053232;28;20208;-60
2021/05/28 09:47:02;;;;;;;8.43;5.82;;;13.70;1.00;;;;;;5054261;28;20187;-60
2021/05/28 09:49:31;;;;;;;8.52;5.53;;;13.90;1.00;;;;;;5054670;28;20177;-64
2021/05/28 09:52:12;;;;;;;8.35;5.78;;;13.90;1.00;;;;;;5053914;28;20726;-63
2021/05/28 09:54:39;;;;;;;9.52;7.32;;;13.60;1.00;;;;;;5053784;28;20564;-68
2021/05/28 09:57:06;;;;;;;8.57;5.80;;;13.20;1.00;;;;;;5054095;28;20196;-66
2021/05/28 09:59:45;;;;;;;8.88;5.38;;;13.60;1.00;;;;;;5053945;28;20208;-68
2021/05/28 10:02:30;;;;;;;9.07;5.90;;;13.70;1.00;;;;;;5053463;28;20180;-68
2021/05/28 10:04:58;;;;;;;7.85;5.90;;;14.20;1.00;;;;;;5053263;28;20183;-68
2021/05/28 10:07:26;;;;;;;7.57;5.32;;;14.20;1.00;;;;;;5035788;28;20268;-68
2021/05/28 10:09:53;;;;;;;14.07;6.88;;;14.00;1.00;;;;;;5035920;28;20200;-65
2021/05/28 10:12:20;;;;;;;8.80;5.38;;;14.10;1.00;;;;;;5053383;28;20661;-65
2021/05/28 10:14:46;;;;;;;11.75;6.32;;;14.30;1.00;;;;;;5035352;28;20181;-66
2021/05/28 10:17:14;;;;;;;7.70;5.80;;;14.70;1.00;;;;;;5053530;28;20185;-67
2021/05/28 10:19:41;;;;;;;9.07;5.53;;;14.40;99.90;;;;;;5047646;28;20289;-69
2021/05/28 10:22:06;;;;;;;11.10;5.68;;;14.80;99.90;;;;;;5048517;28;20519;-69
2021/05/28 10:24:32;;;;;;;8.73;5.00;;;14.90;99.90;;;;;;5050708;28;20333;-70
2021/05/28 10:27:01;;;;;;;8.02;5.88;;;14.90;99.90;;;;;;5035818;28;20516;-70
2021/05/28 10:29:29;;;;;;;6.50;5.32;;;15.30;1.00;;;;;;5032869;28;20251;-67
2021/05/28 10:31:55;;;;;;;8.82;5.97;;;14.80;99.90;;;;;;5041395;28;20220;-68
2021/05/28 10:34:22;;;;;;;10.73;5.80;;;14.60;99.90;;;;;;5053004;28;20183;-68
2021/05/28 10:36:49;;;;;;;10.35;6.10;;;14.60;99.90;;;;;;5036313;28;20276;-66
2021/05/28 10:39:16;;;;;;;10.88;5.95;;;14.20;1.00;;;;;;5035950;28;20180;-62
2021/05/28 10:41:55;;;;;;;7.27;4.97;;;14.40;1.00;;;;;;5053617;28;20255;-64
2021/05/28 10:44:26;;;;;;;8.50;5.53;;;14.80;99.90;;;;;;5050915;28;20450;-65
2021/05/28 10:47:19;;;;;;;6.90;5.23;;;15.10;99.90;;;;;;5053692;28;20177;-64
2021/05/28 10:49:53;;;;;;;8.40;4.85;;;15.60;99.90;;;;;;5036176;28;20431;-62
2021/05/28 10:52:34;;;;;;;7.00;5.35;;;14.80;56.10;;;;;;5035766;28;20200;-63
2021/05/28 10:55:11;;;;;;;9.63;5.00;;;15.00;99.90;;;;;;5053251;28;20555;-65
2021/05/28 10:57:47;;;;;;;7.43;5.40;;;15.30;47.80;;;;;;5053825;28;20411;-64
2021/05/28 11:00:25;;;;;;;8.35;5.95;;;15.70;1.00;;;;;;5053447;28;20268;-68
2021/05/28 11:02:59;;;;;;;7.80;5.78;;;15.50;99.90;;;;;;5053905;28;20185;-67
2021/05/28 11:05:47;;;;;;;10.05;5.55;;;15.10;1.00;;;;;;5053325;28;20614;-67
2021/05/28 11:08:35;;;;;;;9.52;6.45;;;15.30;99.90;;;;;;5053088;28;20246;-63
2021/05/28 11:11:01;;;;;;;8.38;5.85;;;15.50;1.00;;;;;;5035749;28;20192;-65
2021/05/28 11:13:27;;;;;;;11.00;5.60;;;15.00;99.90;;;;;;5054829;28;20195;-64
2021/05/28 11:15:57;;;;;;;8.80;5.50;;;15.40;99.90;;;;;;5057343;28;20181;-63
2021/05/28 11:18:30;;;;;;;5.45;4.95;;;15.30;1.00;;;;;;5057304;28;20220;-63
2021/05/28 11:21:20;;;;;;;10.18;4.97;;;15.50;1.00;;;;;;5057042;28;20169;-65
2021/05/28 11:23:53;;;;;;;7.43;5.13;;;15.10;1.00;;;;;;5056367;28;20180;-65
2021/05/28 11:26:27;;;;;;;11.90;5.90;;;15.00;1.00;;;;;;5056965;28;20492;-65
2021/05/28 11:28:59;;;;;;;7.45;5.18;;;14.60;99.90;;;;;;5057089;28;20542;-67
2021/05/28 11:31:30;;;;;;;9.97;5.70;;;14.90;99.90;;;;;;5057012;28;20236;-66
2021/05/28 11:33:58;;;;;;;7.30;5.07;;;14.80;99.90;;;;;;5056730;28;20442;-68
2021/05/28 11:36:26;;;;;;;12.05;5.80;;;14.80;99.90;;;;;;5057098;28;20302;-68
2021/05/28 11:39:26;;;;;;;9.60;4.93;;;15.50;1.00;;;;;;5039551;28;20185;-67
2021/05/28 11:42:01;;;;;;;8.23;5.43;;;15.30;1.00;;;;;;5053286;28;20291;-68
2021/05/28 11:44:29;;;;;;;8.98;5.43;;;15.00;1.00;;;;;;5056565;28;20550;-69
2021/05/28 11:46:55;;;;;;;9.05;5.07;;;14.70;99.90;;;;;;5056514;28;20180;-69
2021/05/28 11:49:23;;;;;;;13.93;5.78;;;14.90;1.00;;;;;;5039146;28;20185;-63
2021/05/28 11:52:05;;;;;;;7.28;4.80;;;15.20;1.00;;;;;;5056624;28;20247;-64
2021/05/28 11:54:33;;;;;;;10.50;5.60;;;15.10;1.00;;;;;;5051018;28;20234;-61
2021/05/28 11:57:09;;;;;;;9.10;6.63;;;15.10;99.90;;;;;;5049981;28;20188;-64
2021/05/28 11:59:49;;;;;;;7.63;6.03;;;15.80;1.00;;;;;;5038445;28;20176;-66
2021/05/28 12:02:38;;;;;;;6.73;4.40;;;16.40;99.90;;;;;;5047679;28;20450;-67
2021/05/28 12:05:26;;;;;;;8.30;4.97;;;15.90;1.00;;;;;;5055543;28;20438;-67
2021/05/28 12:07:53;;;;;;;7.67;5.80;;;15.80;25.80;;;;;;5038078;28;20922;-70
2021/05/28 12:10:20;;;;;;;8.03;5.00;;;16.50;1.00;;;;;;5042533;28;20434;-67
2021/05/28 12:12:48;;;;;;;6.23;4.20;;;16.30;1.00;;;;;;5050861;28;21015;-65
2021/05/28 12:15:15;;;;;;;8.47;5.60;;;16.10;1.00;;;;;;5055684;28;20441;-66
2021/05/28 12:17:40;;;;;;;5.80;4.20;;;16.20;99.90;;;;;;5056295;28;20492;-66
2021/05/28 12:20:18;;;;;;;5.30;3.90;;;16.20;99.90;;;;;;5038452;28;20459;-65
2021/05/28 12:23:01;;;;;;;6.25;4.15;;;15.80;1.00;;;;;;5056180;28;20213;-66
2021/05/28 12:25:28;;;;;;;4.87;3.97;;;15.50;99.90;;;;;;5056664;28;20177;-66
2021/05/28 12:28:05;;;;;;;6.87;4.43;;;15.20;1.00;;;;;;5056772;28;20439;-66
2021/05/28 12:30:31;;;;;;;12.87;5.30;;;15.70;67.50;;;;;;5039298;28;20451;-67
2021/05/28 12:32:57;;;;;;;7.00;4.40;;;16.10;99.90;;;;;;5055930;28;20480;-67
2021/05/28 12:35:23;;;;;;;5.83;3.57;;;15.90;1.00;;;;;;5056026;28;20418;-66
2021/05/28 12:38:12;;;;;;;13.47;4.70;;;16.10;99.90;;;;;;5056862;28;20177;-67
2021/05/28 12:40:43;;;;;;;6.87;4.20;;;16.50;99.90;;;;;;5055998;28;20442;-68
2021/05/28 12:43:08;;;;;;;8.00;4.93;;;16.10;1.00;;;;;;5039027;28;20471;-64
2021/05/28 12:45:37;;;;;;;5.67;4.80;;;15.40;1.00;;;;;;5056636;28;20438;-65
2021/05/28 12:48:03;;;;;;;6.63;4.50;;;15.90;1.00;;;;;;5040010;28;20427;-66
2021/05/28 12:50:34;;;;;;;7.50;4.90;;;16.40;99.90;;;;;;5057960;28;20580;-66
2021/05/28 12:53:09;;;;;;;10.63;4.10;;;15.80;99.90;;;;;;5055590;28;20977;-67
2021/05/28 12:55:37;;;;;;;10.60;5.40;;;15.50;1.00;;;;;;5055405;28;20445;-67
2021/05/28 12:58:03;;;;;;;8.40;4.27;;;15.20;99.90;;;;;;5055419;28;20534;-66
2021/05/28 13:00:37;;;;;;;7.77;4.70;;;15.00;1.00;;;;;;5054915;28;20420;-67